Angola, Louisiana
Current Conditions -  °F | °C
As of 10:55 AM on Thursday 27 Nov 2014 (Local Time) from KHZR Reporting Station
Clear Clear  
Wind Chill: 55°   Ceiling: Unl
Heat Index: 55°   Visibility: 10mi
Dew Point: 31°   Wind: 7mph
Humidity: 40%   Direction: 330°NNW
Pressure: 30.47"   Gusts: NA
Location:  30.95°N, 91.57°W
Report Text: KHZR 271655Z AUTO 33006KT 10SM CLR 13/00 A3047 RMK AO2 T01291005
Loading
Personal Weather Stations






























Interactive Weather Map New forecast layout! Learn more

10-Day Weather Forecast

Advertisements
Track Severe Weather on mobile